Nearby METAR Reports

 

EGQL - Leuchars Raf, United Kingdom
Distance from station: SW 11mi, 17km
Updated: 26/05/2018 13:50
Clear
Clear
 Wind from E
Wind: E 17 mph , 28 km/h
Temperature: 15°C
Dew Point: 8°C
Humidity: 63%
Barometer: 1030 hPa
Summary: Clear
Visibility: greater than 7 miles , 10 km
2018/05/26 12:50 EGQL 261250Z 08015KT CAVOK 15/08 Q1030 BLU
EGPN - Dundee/Riverside, United Kingdom
Distance from station: WSW 13mi, 20km
Updated: 26/05/2018 14:20
Clear
Clear
 Wind from E
Wind: E 13 mph , 20 km/h
Temperature: 18°C
Dew Point: 10°C
Humidity: 60%
Barometer: 1030 hPa
Summary: Clear
Visibility: greater than 7 miles , 10 km
2018/05/26 13:20 EGPN 261320Z 10011KT 060V120 CAVOK 18/10 Q1030
 
EGPH - Edinburgh Airpor, United Kingdom
Distance from station: SSW 46mi, 74km
Updated: 26/05/2018 14:20
Clear
Clear
 Wind from E
Wind: E 21 mph , 33 km/h
Temperature: 15°C
Dew Point: 10°C
Humidity: 72%
Barometer: 1029 hPa
Summary: Clear
Visibility: greater than 7 miles , 10 km
2018/05/26 13:20 EGPH 261320Z 08018KT CAVOK 15/10 Q1029
EGPD - Aberdeen/Dyce, United Kingdom
Distance from station: NNE 51mi, 82km
Updated: 26/05/2018 14:20
Clear
Clear
 Wind from NNE
Wind: NNE 8 mph , 13 km/h
Temperature: 19°C
Dew Point: 10°C
Humidity: 56%
Barometer: 1031 hPa
Clouds: Clear
Visibility: 6 miles , 10 km
2018/05/26 13:20 EGPD 261320Z AUTO 03007KT 350V090 9999 NCD 19/10 Q1031